Terminal Aerodrome Forecast
Issued by NWS

Home | Current Version | Previous Version | Text Only | Print | Product List | Glossary Off
Versions: 1 2 3 4 5 6 7 8 9 10 11 12 13 14 15 16 17 18 19 20 21 22 23 24 25 26 27 28 29 30 31 32 33 34 35 36 37

000
FTUS43 KLOT 172320
TAFORD
TAF
KORD 172320Z 1800/1906 25009KT P6SM BKN080
     FM180030 10008KT P6SM BKN080
     FM180300 21004KT P6SM SCT070
     FM181000 02006KT P6SM BKN060
     FM181400 05012G17KT P6SM BKN060
     FM190300 09011KT P6SM BKN045=

USA.gov is the U.S. government's official web portal to all federal, state and local government web resources and services.